Time;durP1;ratioP1;P1;durP2;ratioP2;P2;SDS_P1;SDS_P2;PMS_P1;PMS_P2;Temp;Humidity;BMP_temperature;BMP_pressure;BME280_temperature;BME280_humidity;BME280_pressure;Samples;Min_cycle;Max_cycle;Signal;HPM_P1;HPM_P2
2021/05/08 00:00:29;;;;;;;;;;;;;;;;;;1478921;40;7012;-63
2021/05/08 00:01:31;;;;;;;;;;;;;;;;;;1479069;40;7082;-60
2021/05/08 00:02:34;;;;;;;;;;;;;;;;;;1479580;40;7039;-61
2021/05/08 00:03:35;;;;;;;;;;;;;;;;;;1479155;40;7000;-63
2021/05/08 00:04:38;;;;;;;;;;;;;;;;;;1479478;40;7122;-63
2021/05/08 00:05:40;;;;;;;;;;;;;;;;;;1475501;40;7116;-62
2021/05/08 00:06:41;;;;;;;;;;;;;;;;;;1474939;40;7114;-64
2021/05/08 00:07:44;;;;;;;;;;;;;;;;;;1474891;40;7204;-60
2021/05/08 00:08:46;;;;;;;;;;;;;;;;;;1478047;40;7128;-63
2021/05/08 00:09:48;;;;;;;;;;;;;;;;;;1479122;40;7000;-62
2021/05/08 00:10:50;;;;;;;;;;;;;;;;;;1475660;40;6999;-60
2021/05/08 00:11:55;;;;;;;;;;;;;;;;;;1474970;40;6992;-61
2021/05/08 00:12:57;;;;;;;;;;;;;;;;;;1475204;40;7023;-61
2021/05/08 00:13:59;;;;;;;;;;;;;;;;;;1474796;40;6991;-63
2021/05/08 00:15:01;;;;;;;;;;;;;;;;;;1475117;40;7000;-60
2021/05/08 00:16:03;;;;;;;;;;;;;;;;;;1475058;40;6999;-60
2021/05/08 00:17:06;;;;;;;;;;;;;;;;;;1475316;40;7000;-61
2021/05/08 00:18:08;;;;;;;;;;;;;;;;;;1477123;40;7031;-64
2021/05/08 00:19:10;;;;;;;;;;;;;;;;;;1478730;40;7115;-64
2021/05/08 00:20:13;;;;;;;;;;;;;;;;;;1478504;40;7203;-63
2021/05/08 00:21:15;;;;;;;;;;;;;;;;;;1476992;40;7897;-60
2021/05/08 00:22:17;;;;;;;;;;;;;;;;;;1482060;40;7065;-63
2021/05/08 00:23:20;;;;;;;;;;;;;;;;;;1479204;40;7994;-60
2021/05/08 00:24:22;;;;;;;;;;;;;;;;;;1474687;40;7111;-62
2021/05/08 00:25:24;;;;;;;;;;;;;;;;;;1474858;40;6992;-65
2021/05/08 00:26:26;;;;;;;;;;;;;;;;;;1474967;40;7031;-63
2021/05/08 00:27:28;;;;;;;;;;;;;;;;;;1474601;40;6999;-62
2021/05/08 00:28:30;;;;;;;;;;;;;;;;;;1475637;40;7190;-61
2021/05/08 00:29:32;;;;;;;;;;;;;;;;;;1478910;40;6992;-64
2021/05/08 00:30:34;;;;;;;;;;;;;;;;;;1478839;40;6991;-60
2021/05/08 00:31:36;;;;;;;;;;;;;;;;;;1479685;40;7812;-62
2021/05/08 00:32:38;;;;;;;;;;;;;;;;;;1478963;40;7063;-63
2021/05/08 00:33:40;;;;;;;;;;;;;;;;;;1479033;40;7007;-63
2021/05/08 00:34:42;;;;;;;;;;;;;;;;;;1476917;40;7000;-61
2021/05/08 00:35:44;;;;;;;;;;;;;;;;;;1474243;40;7031;-63
2021/05/08 00:36:46;;;;;;;;;;;;;;;;;;1474913;40;7973;-61
2021/05/08 00:37:48;;;;;;;;;;;;;;;;;;1475541;40;6999;-62
2021/05/08 00:38:50;;;;;;;;;;;;;;;;;;1475033;40;7001;-63
2021/05/08 00:39:52;;;;;;;;;;;;;;;;;;1474736;40;7128;-64
2021/05/08 00:40:54;;;;;;;;;;;;;;;;;;1474868;40;7851;-61
2021/05/08 00:41:56;;;;;;;;;;;;;;;;;;1479058;40;7002;-62
2021/05/08 00:42:58;;;;;;;;;;;;;;;;;;1479229;40;6999;-60
2021/05/08 00:44:00;;;;;;;;;;;;;;;;;;1479420;40;7898;-64
2021/05/08 00:45:02;;;;;;;;;;;;;;;;;;1476748;40;7120;-64
2021/05/08 00:46:04;;;;;;;;;;;;;;;;;;1476095;40;7000;-61
2021/05/08 00:47:06;;;;;;;;;;;;;;;;;;1474923;40;7939;-61
2021/05/08 00:48:10;;;;;;;;;;;;;;;;;;1475080;40;7000;-64
2021/05/08 00:49:13;;;;;;;;;;;;;;;;;;1474783;40;7948;-63
2021/05/08 00:50:18;;;;;;;;;;;;;;;;;;1474988;40;7012;-60
2021/05/08 00:51:20;;;;;;;;;;;;;;;;;;1474628;40;7003;-64
2021/05/08 00:52:22;;;;;;;;;;;;;;;;;;1474958;40;8820;-61
2021/05/08 00:53:25;;;;;;;;;;;;;;;;;;1474812;40;7000;-60
2021/05/08 00:54:27;;;;;;;;;;;;;;;;;;1475195;40;7032;-62
2021/05/08 00:55:30;;;;;;;;;;;;;;;;;;1474904;40;7076;-61
2021/05/08 00:56:33;;;;;;;;;;;;;;;;;;1475135;40;7007;-62
2021/05/08 00:57:36;;;;;;;;;;;;;;;;;;1475194;40;7008;-62
2021/05/08 00:58:38;;;;;;;;;;;;;;;;;;1475066;40;7959;-62
2021/05/08 00:59:40;;;;;;;;;;;;;;;;;;1474736;40;7058;-63
2021/05/08 01:00:42;;;;;;;;;;;;;;;;;;1475080;40;6991;-63
2021/05/08 01:01:44;;;;;;;;;;;;;;;;;;1474906;40;7146;-63
2021/05/08 01:02:46;;;;;;;;;;;;;;;;;;1474798;40;7031;-63
2021/05/08 01:03:49;;;;;;;;;;;;;;;;;;1474768;40;7016;-60
2021/05/08 01:04:51;;;;;;;;;;;;;;;;;;1477276;40;7055;-63
2021/05/08 01:05:53;;;;;;;;;;;;;;;;;;1475054;40;7029;-62
2021/05/08 01:06:55;;;;;;;;;;;;;;;;;;1478724;40;7056;-62
2021/05/08 01:07:58;;;;;;;;;;;;;;;;;;1478858;40;7062;-61
2021/05/08 01:09:00;;;;;;;;;;;;;;;;;;1475826;40;7009;-62
2021/05/08 01:10:03;;;;;;;;;;;;;;;;;;1474877;40;7000;-62
2021/05/08 01:11:05;;;;;;;;;;;;;;;;;;1474940;40;7975;-63
2021/05/08 01:12:07;;;;;;;;;;;;;;;;;;1475335;40;7063;-64
2021/05/08 01:13:09;;;;;;;;;;;;;;;;;;1479294;40;6992;-63
2021/05/08 01:14:11;;;;;;;;;;;;;;;;;;1475296;40;7075;-64
2021/05/08 01:15:15;;;;;;;;;;;;;;;;;;1475266;40;7035;-63
2021/05/08 01:16:17;;;;;;;;;;;;;;;;;;1474727;40;7000;-62
2021/05/08 01:17:19;;;;;;;;;;;;;;;;;;1475636;40;6992;-63
2021/05/08 01:18:21;;;;;;;;;;;;;;;;;;1478233;40;7118;-63
2021/05/08 01:19:26;;;;;;;;;;;;;;;;;;1478201;40;7835;-63
2021/05/08 01:20:28;;;;;;;;;;;;;;;;;;1478502;40;7040;-63
2021/05/08 01:21:30;;;;;;;;;;;;;;;;;;1477299;40;7196;-62
2021/05/08 01:22:32;;;;;;;;;;;;;;;;;;1476800;40;7123;-61
2021/05/08 01:23:34;;;;;;;;;;;;;;;;;;1474703;40;7027;-60
2021/05/08 01:24:36;;;;;;;;;;;;;;;;;;1474449;40;7199;-64
2021/05/08 01:25:38;;;;;;;;;;;;;;;;;;1475198;40;7087;-65
2021/05/08 01:26:40;;;;;;;;;;;;;;;;;;1478556;40;7063;-62
2021/05/08 01:27:50;;;;;;;;;;;;;;;;;;1478294;40;7102;-62
2021/05/08 01:28:53;;;;;;;;;;;;;;;;;;1478100;40;7107;-60
2021/05/08 01:29:55;;;;;;;;;;;;;;;;;;1478446;40;7000;-61
2021/05/08 01:30:57;;;;;;;;;;;;;;;;;;1474491;40;6999;-61
2021/05/08 01:31:59;;;;;;;;;;;;;;;;;;1477429;40;6992;-61
2021/05/08 01:33:01;;;;;;;;;;;;;;;;;;1478620;40;7162;-63
2021/05/08 01:34:03;;;;;;;;;;;;;;;;;;1478533;40;7001;-62
2021/05/08 01:35:06;;;;;;;;;;;;;;;;;;1477871;40;7360;-63
2021/05/08 01:36:08;;;;;;;;;;;;;;;;;;1478737;40;7123;-62
2021/05/08 01:37:10;;;;;;;;;;;;;;;;;;1481308;40;7004;-61
2021/05/08 01:38:12;;;;;;;;;;;;;;;;;;1478242;40;7832;-61
2021/05/08 01:39:14;;;;;;;;;;;;;;;;;;1474920;40;7000;-61
2021/05/08 01:40:16;;;;;;;;;;;;;;;;;;1474859;40;7896;-61
2021/05/08 01:41:18;;;;;;;;;;;;;;;;;;1477243;40;7191;-60
2021/05/08 01:42:20;;;;;;;;;;;;;;;;;;1474646;40;7925;-61
2021/05/08 01:43:23;;;;;;;;;;;;;;;;;;1474622;40;7932;-60
2021/05/08 01:44:25;;;;;;;;;;;;;;;;;;1478163;40;6999;-65
2021/05/08 01:45:27;;;;;;;;;;;;;;;;;;1478799;40;7911;-62
2021/05/08 01:46:31;;;;;;;;;;;;;;;;;;1474698;40;6988;-62
2021/05/08 01:47:35;;;;;;;;;;;;;;;;;;1474908;40;6991;-62
2021/05/08 01:48:37;;;;;;;;;;;;;;;;;;1474920;40;7199;-61
2021/05/08 01:49:39;;;;;;;;;;;;;;;;;;1474823;40;7099;-62
2021/05/08 01:50:41;;;;;;;;;;;;;;;;;;1475010;40;6996;-60
2021/05/08 01:51:43;;;;;;;;;;;;;;;;;;1474909;40;7933;-61
2021/05/08 01:52:45;;;;;;;;;;;;;;;;;;1474642;40;7040;-61
2021/05/08 01:53:47;;;;;;;;;;;;;;;;;;1478272;40;6991;-61
2021/05/08 01:54:49;;;;;;;;;;;;;;;;;;1478192;40;7011;-62
2021/05/08 01:55:51;;;;;;;;;;;;;;;;;;1474837;40;8862;-62
2021/05/08 01:56:54;;;;;;;;;;;;;;;;;;1475161;40;7001;-60
2021/05/08 01:57:57;;;;;;;;;;;;;;;;;;1475485;40;7122;-62
2021/05/08 01:58:59;;;;;;;;;;;;;;;;;;1476662;40;7129;-63
2021/05/08 02:00:04;;;;;;;;;;;;;;;;;;1478462;40;8848;-62
2021/05/08 02:01:06;;;;;;;;;;;;;;;;;;1477652;40;7039;-62
2021/05/08 02:02:08;;;;;;;;;;;;;;;;;;1478951;40;7035;-62
2021/05/08 02:03:11;;;;;;;;;;;;;;;;;;1479031;40;7188;-62
2021/05/08 02:04:13;;;;;;;;;;;;;;;;;;1478513;40;7130;-61
2021/05/08 02:05:15;;;;;;;;;;;;;;;;;;1476906;40;7942;-61
2021/05/08 02:06:17;;;;;;;;;;;;;;;;;;1475059;40;7004;-62
2021/05/08 02:07:18;;;;;;;;;;;;;;;;;;1475321;40;7044;-62
2021/05/08 02:08:20;;;;;;;;;;;;;;;;;;1474557;40;6988;-65
2021/05/08 02:09:22;;;;;;;;;;;;;;;;;;1474951;40;7191;-62
2021/05/08 02:10:24;;;;;;;;;;;;;;;;;;1474535;40;7031;-61
2021/05/08 02:11:26;;;;;;;;;;;;;;;;;;1474887;40;7931;-62
2021/05/08 02:12:30;;;;;;;;;;;;;;;;;;1474458;40;7003;-63
2021/05/08 02:13:32;;;;;;;;;;;;;;;;;;1474695;40;7133;-60
2021/05/08 02:14:34;;;;;;;;;;;;;;;;;;1475005;40;6992;-64
2021/05/08 02:15:36;;;;;;;;;;;;;;;;;;1475513;40;7000;-61
2021/05/08 02:16:38;;;;;;;;;;;;;;;;;;1475129;40;6995;-62
2021/05/08 02:17:41;;;;;;;;;;;;;;;;;;1475554;40;7586;-60
2021/05/08 02:18:43;;;;;;;;;;;;;;;;;;1477982;40;7000;-61
2021/05/08 02:19:45;;;;;;;;;;;;;;;;;;1478555;40;7119;-63
2021/05/08 02:20:47;;;;;;;;;;;;;;;;;;1478665;40;7027;-60
2021/05/08 02:21:49;;;;;;;;;;;;;;;;;;1477702;40;7012;-62
2021/05/08 02:22:51;;;;;;;;;;;;;;;;;;1476860;40;7027;-62
2021/05/08 02:23:53;;;;;;;;;;;;;;;;;;1474146;40;7008;-63
2021/05/08 02:24:55;;;;;;;;;;;;;;;;;;1478029;40;7240;-62
2021/05/08 02:25:57;;;;;;;;;;;;;;;;;;1478521;40;7036;-63
2021/05/08 02:26:58;;;;;;;;;;;;;;;;;;1478598;40;7008;-65
2021/05/08 02:28:00;;;;;;;;;;;;;;;;;;1478501;40;7027;-62
2021/05/08 02:29:02;;;;;;;;;;;;;;;;;;1478142;40;7921;-62
2021/05/08 02:30:06;;;;;;;;;;;;;;;;;;1474414;40;7032;-62
2021/05/08 02:31:07;;;;;;;;;;;;;;;;;;1474479;40;7031;-61
2021/05/08 02:32:10;;;;;;;;;;;;;;;;;;1475017;40;7031;-61
2021/05/08 02:33:12;;;;;;;;;;;;;;;;;;1475004;40;7023;-61
2021/05/08 02:34:14;;;;;;;;;;;;;;;;;;1474426;40;7959;-63
2021/05/08 02:35:16;;;;;;;;;;;;;;;;;;1477334;40;7055;-64
2021/05/08 02:36:18;;;;;;;;;;;;;;;;;;1478077;40;7004;-62
2021/05/08 02:37:20;;;;;;;;;;;;;;;;;;1474612;40;7106;-62
2021/05/08 02:38:23;;;;;;;;;;;;;;;;;;1474642;40;6995;-61
2021/05/08 02:39:25;;;;;;;;;;;;;;;;;;1474503;40;6991;-63
2021/05/08 02:40:32;;;;;;;;;;;;;;;;;;1478238;40;6988;-61
2021/05/08 02:41:34;;;;;;;;;;;;;;;;;;1478218;40;7939;-63
2021/05/08 02:42:36;;;;;;;;;;;;;;;;;;1475226;40;7075;-61
2021/05/08 02:43:38;;;;;;;;;;;;;;;;;;1475668;40;6997;-61
2021/05/08 02:44:40;;;;;;;;;;;;;;;;;;1475482;40;7027;-63
2021/05/08 02:45:42;;;;;;;;;;;;;;;;;;1475756;40;6999;-61
2021/05/08 02:46:44;;;;;;;;;;;;;;;;;;1475582;40;7910;-61
2021/05/08 02:47:48;;;;;;;;;;;;;;;;;;1475189;40;8006;-63
2021/05/08 02:48:50;;;;;;;;;;;;;;;;;;1478253;40;7892;-61
2021/05/08 02:49:55;;;;;;;;;;;;;;;;;;1479095;40;6991;-61
2021/05/08 02:50:57;;;;;;;;;;;;;;;;;;1479076;40;7056;-60
2021/05/08 02:51:59;;;;;;;;;;;;;;;;;;1479162;40;6988;-60
2021/05/08 02:53:01;;;;;;;;;;;;;;;;;;1479243;40;7031;-63
2021/05/08 02:54:03;;;;;;;;;;;;;;;;;;1479412;40;7926;-66
2021/05/08 02:55:06;;;;;;;;;;;;;;;;;;1478812;40;8003;-60
2021/05/08 02:56:08;;;;;;;;;;;;;;;;;;1479392;40;7068;-64
2021/05/08 02:57:10;;;;;;;;;;;;;;;;;;1479243;40;6999;-63
2021/05/08 02:58:12;;;;;;;;;;;;;;;;;;1476877;40;7013;-63
2021/05/08 02:59:14;;;;;;;;;;;;;;;;;;1478474;40;7000;-61
2021/05/08 03:00:16;;;;;;;;;;;;;;;;;;1478504;40;7022;-63
2021/05/08 03:01:18;;;;;;;;;;;;;;;;;;1475757;40;7934;-62
2021/05/08 03:02:20;;;;;;;;;;;;;;;;;;1476112;40;6996;-63
2021/05/08 03:03:23;;;;;;;;;;;;;;;;;;1474823;40;7108;-61
2021/05/08 03:04:26;;;;;;;;;;;;;;;;;;1474739;40;7188;-62
2021/05/08 03:05:28;;;;;;;;;;;;;;;;;;1475000;40;6992;-61
2021/05/08 03:06:30;;;;;;;;;;;;;;;;;;1475313;40;7016;-61
2021/05/08 03:07:32;;;;;;;;;;;;;;;;;;1475860;40;7020;-61
2021/05/08 03:08:34;;;;;;;;;;;;;;;;;;1475310;40;7032;-61
2021/05/08 03:09:36;;;;;;;;;;;;;;;;;;1475209;40;6991;-61
2021/05/08 03:10:38;;;;;;;;;;;;;;;;;;1475228;40;6999;-61
2021/05/08 03:11:41;;;;;;;;;;;;;;;;;;1475308;40;7059;-63
2021/05/08 03:12:42;;;;;;;;;;;;;;;;;;1475240;40;7112;-62
2021/05/08 03:13:44;;;;;;;;;;;;;;;;;;1475364;40;7027;-64
2021/05/08 03:14:46;;;;;;;;;;;;;;;;;;1475319;40;6999;-60
2021/05/08 03:15:48;;;;;;;;;;;;;;;;;;1475319;40;7917;-61
2021/05/08 03:16:51;;;;;;;;;;;;;;;;;;1474907;40;7929;-60
2021/05/08 03:18:09;;;;;;;;;;;;;;;;;;1478207;40;7039;-62
2021/05/08 03:19:11;;;;;;;;;;;;;;;;;;1474927;40;7902;-62
2021/05/08 03:20:13;;;;;;;;;;;;;;;;;;1475155;40;7906;-63
2021/05/08 03:21:15;;;;;;;;;;;;;;;;;;1475328;40;7118;-61
2021/05/08 03:22:17;;;;;;;;;;;;;;;;;;1479228;40;7106;-63
2021/05/08 03:23:19;;;;;;;;;;;;;;;;;;1475912;40;7122;-61
2021/05/08 03:24:21;;;;;;;;;;;;;;;;;;1475193;40;6988;-63
2021/05/08 03:25:23;;;;;;;;;;;;;;;;;;1475864;40;8444;-63
2021/05/08 03:26:25;;;;;;;;;;;;;;;;;;1479160;40;7019;-62
2021/05/08 03:27:27;;;;;;;;;;;;;;;;;;1479067;40;7036;-62
2021/05/08 03:28:29;;;;;;;;;;;;;;;;;;1478510;40;6991;-62
2021/05/08 03:29:31;;;;;;;;;;;;;;;;;;1478735;40;6991;-62
2021/05/08 03:30:33;;;;;;;;;;;;;;;;;;1478608;40;7142;-62
2021/05/08 03:31:35;;;;;;;;;;;;;;;;;;1479029;40;8830;-63
2021/05/08 03:32:37;;;;;;;;;;;;;;;;;;1479218;40;7865;-61
2021/05/08 03:33:39;;;;;;;;;;;;;;;;;;1479413;40;7943;-63
2021/05/08 03:34:42;;;;;;;;;;;;;;;;;;1477497;40;7008;-61
2021/05/08 03:35:44;;;;;;;;;;;;;;;;;;1474992;40;7107;-62
2021/05/08 03:36:46;;;;;;;;;;;;;;;;;;1475483;40;6999;-62
2021/05/08 03:37:48;;;;;;;;;;;;;;;;;;1476918;40;7901;-61
2021/05/08 03:38:49;;;;;;;;;;;;;;;;;;1479225;40;7027;-62
2021/05/08 03:39:51;;;;;;;;;;;;;;;;;;1479182;40;7117;-63
2021/05/08 03:40:53;;;;;;;;;;;;;;;;;;1479508;40;6988;-61
2021/05/08 03:41:55;;;;;;;;;;;;;;;;;;1479566;40;7039;-63
2021/05/08 03:42:57;;;;;;;;;;;;;;;;;;1479344;40;7027;-61
2021/05/08 03:43:59;;;;;;;;;;;;;;;;;;1477388;40;6999;-63
2021/05/08 03:45:01;;;;;;;;;;;;;;;;;;1478743;40;7027;-62
2021/05/08 03:46:03;;;;;;;;;;;;;;;;;;1479784;40;6992;-61
2021/05/08 03:47:05;;;;;;;;;;;;;;;;;;1475565;40;7224;-62
2021/05/08 03:48:07;;;;;;;;;;;;;;;;;;1478235;40;7000;-61
2021/05/08 03:49:10;;;;;;;;;;;;;;;;;;1479242;40;7023;-61
2021/05/08 03:50:12;;;;;;;;;;;;;;;;;;1479075;40;7031;-62
2021/05/08 03:51:14;;;;;;;;;;;;;;;;;;1479406;40;7036;-64
2021/05/08 03:52:16;;;;;;;;;;;;;;;;;;1479207;40;7012;-62
2021/05/08 03:53:21;;;;;;;;;;;;;;;;;;1479328;40;6999;-64
2021/05/08 03:54:23;;;;;;;;;;;;;;;;;;1479218;40;6999;-63
2021/05/08 03:55:25;;;;;;;;;;;;;;;;;;1479768;40;6988;-61
2021/05/08 03:56:27;;;;;;;;;;;;;;;;;;1479554;40;7011;-62
2021/05/08 03:57:29;;;;;;;;;;;;;;;;;;1478022;40;7853;-62
2021/05/08 03:58:32;;;;;;;;;;;;;;;;;;1474616;40;7935;-63
2021/05/08 03:59:34;;;;;;;;;;;;;;;;;;1474850;40;7195;-62
2021/05/08 04:00:36;;;;;;;;;;;;;;;;;;1474650;40;7008;-61
2021/05/08 04:01:38;;;;;;;;;;;;;;;;;;1475123;40;7004;-60
2021/05/08 04:02:40;;;;;;;;;;;;;;;;;;1475566;40;7857;-63
2021/05/08 04:03:42;;;;;;;;;;;;;;;;;;1474748;40;7027;-63
2021/05/08 04:04:43;;;;;;;;;;;;;;;;;;1475358;40;7008;-63
2021/05/08 04:05:45;;;;;;;;;;;;;;;;;;1475226;40;7004;-61
2021/05/08 04:06:47;;;;;;;;;;;;;;;;;;1475236;40;7208;-62
2021/05/08 04:07:50;;;;;;;;;;;;;;;;;;1475020;40;7000;-62
2021/05/08 04:08:52;;;;;;;;;;;;;;;;;;1479899;40;7145;-63
2021/05/08 04:09:54;;;;;;;;;;;;;;;;;;1479730;40;7004;-60
2021/05/08 04:10:56;;;;;;;;;;;;;;;;;;1474925;40;7027;-62
2021/05/08 04:11:58;;;;;;;;;;;;;;;;;;1475159;40;7023;-63
2021/05/08 04:13:00;;;;;;;;;;;;;;;;;;1476095;40;7000;-63
2021/05/08 04:14:02;;;;;;;;;;;;;;;;;;1475051;40;7413;-63
2021/05/08 04:15:04;;;;;;;;;;;;;;;;;;1474568;40;8036;-64
2021/05/08 04:16:06;;;;;;;;;;;;;;;;;;1474727;40;7118;-61
2021/05/08 04:17:08;;;;;;;;;;;;;;;;;;1474699;40;8055;-62
2021/05/08 04:18:11;;;;;;;;;;;;;;;;;;1476806;40;7090;-63
2021/05/08 04:19:13;;;;;;;;;;;;;;;;;;1475394;40;7027;-62
2021/05/08 04:20:15;;;;;;;;;;;;;;;;;;1474634;40;7932;-61
2021/05/08 04:21:17;;;;;;;;;;;;;;;;;;1475019;40;8107;-62
2021/05/08 04:22:19;;;;;;;;;;;;;;;;;;1474561;40;6999;-61
2021/05/08 04:23:21;;;;;;;;;;;;;;;;;;1475670;40;7004;-65
2021/05/08 04:24:23;;;;;;;;;;;;;;;;;;1474951;40;9232;-60
2021/05/08 04:25:27;;;;;;;;;;;;;;;;;;1478895;40;6992;-64
2021/05/08 04:26:29;;;;;;;;;;;;;;;;;;1478896;40;7008;-62
2021/05/08 04:27:37;;;;;;;;;;;;;;;;;;1474447;40;7012;-62
2021/05/08 04:28:38;;;;;;;;;;;;;;;;;;1474542;40;7104;-61
2021/05/08 04:29:40;;;;;;;;;;;;;;;;;;1474511;40;7015;-61
2021/05/08 04:30:42;;;;;;;;;;;;;;;;;;1475181;40;7935;-63
2021/05/08 04:31:52;;;;;;;;;;;;;;;;;;1475954;40;6992;-62
2021/05/08 04:32:54;;;;;;;;;;;;;;;;;;1475031;40;7016;-62
2021/05/08 04:33:56;;;;;;;;;;;;;;;;;;1476269;40;7000;-61
2021/05/08 04:34:58;;;;;;;;;;;;;;;;;;1474426;40;7903;-64
2021/05/08 04:36:00;;;;;;;;;;;;;;;;;;1474357;40;8834;-64
2021/05/08 04:37:02;;;;;;;;;;;;;;;;;;1474875;40;7000;-63
2021/05/08 04:38:04;;;;;;;;;;;;;;;;;;1475030;40;6999;-61
2021/05/08 04:39:06;;;;;;;;;;;;;;;;;;1475389;40;7027;-62
2021/05/08 04:40:08;;;;;;;;;;;;;;;;;;1478754;40;7031;-61
2021/05/08 04:41:12;;;;;;;;;;;;;;;;;;1479206;40;8854;-61
2021/05/08 04:42:14;;;;;;;;;;;;;;;;;;1478270;40;7956;-63
2021/05/08 04:43:16;;;;;;;;;;;;;;;;;;1478901;40;7000;-60
2021/05/08 04:44:18;;;;;;;;;;;;;;;;;;1478648;40;7228;-63
2021/05/08 04:45:20;;;;;;;;;;;;;;;;;;1478234;40;6991;-60
2021/05/08 04:46:25;;;;;;;;;;;;;;;;;;1478741;40;7001;-63
2021/05/08 04:47:27;;;;;;;;;;;;;;;;;;1479300;40;7044;-62
2021/05/08 04:48:33;;;;;;;;;;;;;;;;;;1478880;40;7116;-62
2021/05/08 04:49:35;;;;;;;;;;;;;;;;;;1479482;40;7270;-64
2021/05/08 04:50:37;;;;;;;;;;;;;;;;;;1475858;40;7012;-60
2021/05/08 04:51:39;;;;;;;;;;;;;;;;;;1475019;40;7249;-61
2021/05/08 04:52:41;;;;;;;;;;;;;;;;;;1474972;40;6988;-61
2021/05/08 04:53:43;;;;;;;;;;;;;;;;;;1475134;40;7027;-61
2021/05/08 04:54:44;;;;;;;;;;;;;;;;;;1474819;40;6992;-60
2021/05/08 04:55:49;;;;;;;;;;;;;;;;;;1475059;40;7012;-61
2021/05/08 04:56:51;;;;;;;;;;;;;;;;;;1475151;40;7008;-62
2021/05/08 04:57:53;;;;;;;;;;;;;;;;;;1478763;40;7184;-61
2021/05/08 04:58:56;;;;;;;;;;;;;;;;;;1478304;40;7114;-62
2021/05/08 04:59:58;;;;;;;;;;;;;;;;;;1478746;40;8235;-61
2021/05/08 05:01:00;;;;;;;;;;;;;;;;;;1474799;40;7031;-63
2021/05/08 05:02:03;;;;;;;;;;;;;;;;;;1475060;40;7000;-63
2021/05/08 05:03:05;;;;;;;;;;;;;;;;;;1475008;40;7910;-63
2021/05/08 05:04:07;;;;;;;;;;;;;;;;;;1474856;40;7044;-62
2021/05/08 05:05:10;;;;;;;;;;;;;;;;;;1477922;40;7028;-61
2021/05/08 05:06:12;;;;;;;;;;;;;;;;;;1475162;40;7912;-62
2021/05/08 05:07:14;;;;;;;;;;;;;;;;;;1474986;40;7031;-61
2021/05/08 05:08:19;;;;;;;;;;;;;;;;;;1474972;40;7008;-61
2021/05/08 05:09:23;;;;;;;;;;;;;;;;;;1474936;40;6988;-61
2021/05/08 05:10:26;;;;;;;;;;;;;;;;;;1474837;40;7000;-63
2021/05/08 05:11:28;;;;;;;;;;;;;;;;;;1474909;40;7120;-62
2021/05/08 05:12:30;;;;;;;;;;;;;;;;;;1475029;40;7000;-61
2021/05/08 05:13:32;;;;;;;;;;;;;;;;;;1474955;40;7067;-60
2021/05/08 05:14:33;;;;;;;;;;;;;;;;;;1475179;40;7899;-60
2021/05/08 05:15:35;;;;;;;;;;;;;;;;;;1475759;40;7034;-61
2021/05/08 05:16:37;;;;;;;;;;;;;;;;;;1474458;40;7919;-61
2021/05/08 05:17:39;;;;;;;;;;;;;;;;;;1475493;40;7921;-63
2021/05/08 05:18:41;;;;;;;;;;;;;;;;;;1474523;40;7032;-62
2021/05/08 05:19:43;;;;;;;;;;;;;;;;;;1475105;40;6999;-62
2021/05/08 05:20:46;;;;;;;;;;;;;;;;;;1475067;40;7111;-62
2021/05/08 05:21:48;;;;;;;;;;;;;;;;;;1477531;40;6991;-60
2021/05/08 05:22:51;;;;;;;;;;;;;;;;;;1477537;40;6996;-63
2021/05/08 05:23:53;;;;;;;;;;;;;;;;;;1474957;40;7031;-62
2021/05/08 05:24:55;;;;;;;;;;;;;;;;;;1477925;40;7911;-62
2021/05/08 05:25:57;;;;;;;;;;;;;;;;;;1474984;40;7027;-63
2021/05/08 05:26:59;;;;;;;;;;;;;;;;;;1478238;40;7126;-62
2021/05/08 05:28:01;;;;;;;;;;;;;;;;;;1477822;40;7204;-62
2021/05/08 05:29:03;;;;;;;;;;;;;;;;;;1475394;40;7031;-62
2021/05/08 05:30:05;;;;;;;;;;;;;;;;;;1474301;40;7888;-60
2021/05/08 05:31:07;;;;;;;;;;;;;;;;;;1474686;40;6991;-63
2021/05/08 05:32:09;;;;;;;;;;;;;;;;;;1475004;40;7100;-64
2021/05/08 05:33:11;;;;;;;;;;;;;;;;;;1475404;40;7051;-62
2021/05/08 05:34:13;;;;;;;;;;;;;;;;;;1478775;40;7866;-62
2021/05/08 05:35:16;;;;;;;;;;;;;;;;;;1477974;40;7039;-63
2021/05/08 05:36:18;;;;;;;;;;;;;;;;;;1478761;40;6988;-64
2021/05/08 05:37:20;;;;;;;;;;;;;;;;;;1478761;40;7113;-65
2021/05/08 05:38:24;;;;;;;;;;;;;;;;;;1478869;40;6999;-61
2021/05/08 05:39:26;;;;;;;;;;;;;;;;;;1478830;40;7900;-63
2021/05/08 05:40:28;;;;;;;;;;;;;;;;;;1479013;40;7921;-62
2021/05/08 05:41:30;;;;;;;;;;;;;;;;;;1478594;40;7046;-61
2021/05/08 05:42:32;;;;;;;;;;;;;;;;;;1478902;40;7003;-63
2021/05/08 05:43:34;;;;;;;;;;;;;;;;;;1478964;40;7000;-60
2021/05/08 05:44:36;;;;;;;;;;;;;;;;;;1478967;40;6999;-61
2021/05/08 05:45:38;;;;;;;;;;;;;;;;;;1479535;40;7120;-64
2021/05/08 05:46:40;;;;;;;;;;;;;;;;;;1475182;40;7027;-63
2021/05/08 05:47:42;;;;;;;;;;;;;;;;;;1475881;40;7131;-61
2021/05/08 05:48:44;;;;;;;;;;;;;;;;;;1479154;40;7580;-62
2021/05/08 05:49:47;;;;;;;;;;;;;;;;;;1478895;40;7027;-62
2021/05/08 05:50:49;;;;;;;;;;;;;;;;;;1478949;40;7023;-63
2021/05/08 05:51:51;;;;;;;;;;;;;;;;;;1478829;40;7118;-63
2021/05/08 05:52:56;;;;;;;;;;;;;;;;;;1478762;40;7027;-62
2021/05/08 05:53:58;;;;;;;;;;;;;;;;;;1478980;40;7027;-62
2021/05/08 05:54:59;;;;;;;;;;;;;;;;;;1479043;40;6991;-63
2021/05/08 05:56:02;;;;;;;;;;;;;;;;;;1479005;40;6992;-61
2021/05/08 05:57:04;;;;;;;;;;;;;;;;;;1477695;40;7108;-62
2021/05/08 05:58:06;;;;;;;;;;;;;;;;;;1474753;40;7004;-61
2021/05/08 05:59:08;;;;;;;;;;;;;;;;;;1474776;40;7007;-62
2021/05/08 06:00:10;;;;;;;;;;;;;;;;;;1478701;40;7000;-63
2021/05/08 06:01:12;;;;;;;;;;;;;;;;;;1478632;40;7124;-64
2021/05/08 06:02:14;;;;;;;;;;;;;;;;;;1478715;40;7047;-61
2021/05/08 06:03:16;;;;;;;;;;;;;;;;;;1479048;40;7870;-62
2021/05/08 06:04:18;;;;;;;;;;;;;;;;;;1476185;40;6992;-64
2021/05/08 06:05:20;;;;;;;;;;;;;;;;;;1474842;40;7000;-62
2021/05/08 06:06:22;;;;;;;;;;;;;;;;;;1474822;40;7015;-62
2021/05/08 06:07:24;;;;;;;;;;;;;;;;;;1475461;40;7188;-63
2021/05/08 06:08:27;;;;;;;;;;;;;;;;;;1475111;40;7182;-63
2021/05/08 06:09:29;;;;;;;;;;;;;;;;;;1474641;40;7027;-62
2021/05/08 06:10:31;;;;;;;;;;;;;;;;;;1474547;40;7052;-62
2021/05/08 06:11:33;;;;;;;;;;;;;;;;;;1474670;40;6991;-64
2021/05/08 06:12:35;;;;;;;;;;;;;;;;;;1474895;40;6992;-62
2021/05/08 06:13:37;;;;;;;;;;;;;;;;;;1475741;40;7111;-62
2021/05/08 06:14:39;;;;;;;;;;;;;;;;;;1475098;40;6991;-63
2021/05/08 06:15:41;;;;;;;;;;;;;;;;;;1475121;40;7506;-63
2021/05/08 06:16:43;;;;;;;;;;;;;;;;;;1474975;40;7117;-60
2021/05/08 06:17:45;;;;;;;;;;;;;;;;;;1475895;40;6992;-63
2021/05/08 06:18:47;;;;;;;;;;;;;;;;;;1476030;40;6992;-60
2021/05/08 06:19:48;;;;;;;;;;;;;;;;;;1478486;40;7026;-62
2021/05/08 06:20:50;;;;;;;;;;;;;;;;;;1478917;40;7035;-62
2021/05/08 06:21:53;;;;;;;;;;;;;;;;;;1475859;40;6991;-64
2021/05/08 06:22:56;;;;;;;;;;;;;;;;;;1475005;40;7000;-62
2021/05/08 06:23:58;;;;;;;;;;;;;;;;;;1475087;40;8337;-62
2021/05/08 06:25:00;;;;;;;;;;;;;;;;;;1475179;40;7039;-62
2021/05/08 06:26:02;;;;;;;;;;;;;;;;;;1477363;40;7119;-61
2021/05/08 06:27:04;;;;;;;;;;;;;;;;;;1474766;40;7000;-63
2021/05/08 06:28:06;;;;;;;;;;;;;;;;;;1475995;40;7023;-61
2021/05/08 06:29:08;;;;;;;;;;;;;;;;;;1479288;40;7880;-62
2021/05/08 06:30:10;;;;;;;;;;;;;;;;;;1475191;40;7031;-62
2021/05/08 06:31:12;;;;;;;;;;;;;;;;;;1476103;40;9241;-60
2021/05/08 06:32:14;;;;;;;;;;;;;;;;;;1475537;40;6992;-63
2021/05/08 06:33:16;;;;;;;;;;;;;;;;;;1476763;40;7023;-61
2021/05/08 06:34:18;;;;;;;;;;;;;;;;;;1474982;40;7027;-63
2021/05/08 06:35:20;;;;;;;;;;;;;;;;;;1474245;40;7104;-63
2021/05/08 06:36:23;;;;;;;;;;;;;;;;;;1475580;40;7862;-60
2021/05/08 06:37:25;;;;;;;;;;;;;;;;;;1476277;40;6999;-66
2021/05/08 06:38:28;;;;;;;;;;;;;;;;;;1475707;40;8042;-63
2021/05/08 06:39:30;;;;;;;;;;;;;;;;;;1479505;40;6987;-61
2021/05/08 06:40:34;;;;;;;;;;;;;;;;;;1479365;40;6992;-61
2021/05/08 06:41:36;;;;;;;;;;;;;;;;;;1478998;40;7031;-63
2021/05/08 06:42:38;;;;;;;;;;;;;;;;;;1479566;40;6999;-63
2021/05/08 06:43:40;;;;;;;;;;;;;;;;;;1479105;40;7027;-65
2021/05/08 06:44:42;;;;;;;;;;;;;;;;;;1475440;40;6996;-62
2021/05/08 06:45:44;;;;;;;;;;;;;;;;;;1476181;40;6999;-61
2021/05/08 06:46:46;;;;;;;;;;;;;;;;;;1475296;40;7038;-64
2021/05/08 06:47:49;;;;;;;;;;;;;;;;;;1474886;40;7485;-62
2021/05/08 06:48:51;;;;;;;;;;;;;;;;;;1475367;40;7972;-63
2021/05/08 06:49:53;;;;;;;;;;;;;;;;;;1475323;40;7967;-63
2021/05/08 06:50:55;;;;;;;;;;;;;;;;;;1475255;40;7008;-60
2021/05/08 06:51:57;;;;;;;;;;;;;;;;;;1478553;40;8272;-61
2021/05/08 06:53:03;;;;;;;;;;;;;;;;;;1479601;40;8012;-61
2021/05/08 06:54:05;;;;;;;;;;;;;;;;;;1479370;40;7023;-66
2021/05/08 06:55:07;;;;;;;;;;;;;;;;;;1475077;40;7008;-62
2021/05/08 06:56:09;;;;;;;;;;;;;;;;;;1475078;40;6999;-60
2021/05/08 06:57:11;;;;;;;;;;;;;;;;;;1475500;40;7907;-63
2021/05/08 06:58:12;;;;;;;;;;;;;;;;;;1478230;40;7019;-64
2021/05/08 06:59:16;;;;;;;;;;;;;;;;;;1479615;40;6992;-61
2021/05/08 07:00:18;;;;;;;;;;;;;;;;;;1479435;40;7003;-63
2021/05/08 07:01:20;;;;;;;;;;;;;;;;;;1479622;40;6992;-63
2021/05/08 07:02:22;;;;;;;;;;;;;;;;;;1479109;40;7035;-62
2021/05/08 07:03:24;;;;;;;;;;;;;;;;;;1479486;40;7027;-61
2021/05/08 07:04:26;;;;;;;;;;;;;;;;;;1479224;40;7007;-62
2021/05/08 07:05:29;;;;;;;;;;;;;;;;;;1476571;40;7027;-63
2021/05/08 07:06:31;;;;;;;;;;;;;;;;;;1475039;40;7114;-66
2021/05/08 07:07:32;;;;;;;;;;;;;;;;;;1475102;40;7027;-61
2021/05/08 07:08:34;;;;;;;;;;;;;;;;;;1474893;40;7000;-64
2021/05/08 07:09:36;;;;;;;;;;;;;;;;;;1475158;40;7000;-63
2021/05/08 07:10:46;;;;;;;;;;;;;;;;;;1475106;40;7004;-61
2021/05/08 07:11:48;;;;;;;;;;;;;;;;;;1475245;40;7105;-63
2021/05/08 07:12:50;;;;;;;;;;;;;;;;;;1475287;40;7044;-60